createdAt,value
2022-09-26T00:00:11.206Z,3.15
2022-09-26T00:02:50.581Z,2.60
2022-09-26T00:05:20.650Z,2.65
2022-09-26T00:07:52.429Z,2.95
2022-09-26T00:10:21.898Z,2.85
2022-09-26T00:12:52.454Z,2.70
2022-09-26T00:15:24.537Z,2.95
2022-09-26T00:17:51.980Z,2.90
2022-09-26T00:20:22.223Z,2.42
2022-09-26T00:22:50.846Z,2.83
2022-09-26T00:25:21.782Z,3.30
2022-09-26T00:27:50.247Z,2.70
2022-09-26T00:30:20.844Z,2.50
2022-09-26T00:32:50.545Z,2.55
2022-09-26T00:35:21.447Z,2.47
2022-09-26T00:37:52.117Z,2.70
2022-09-26T00:40:22.715Z,2.53
2022-09-26T00:42:52.098Z,2.70
2022-09-26T00:45:27.646Z,2.85
2022-09-26T00:48:02.187Z,2.90
2022-09-26T00:50:39.117Z,3.13
2022-09-26T00:53:16.960Z,3.03
2022-09-26T00:55:58.157Z,2.55
2022-09-26T00:59:00.775Z,2.20
2022-09-26T01:01:29.426Z,2.75
2022-09-26T01:03:59.951Z,2.25
2022-09-26T01:06:28.145Z,2.15
2022-09-26T01:09:10.540Z,2.80
2022-09-26T01:11:42.516Z,2.65
2022-09-26T01:14:15.092Z,2.30
2022-09-26T01:16:48.105Z,3.05
2022-09-26T01:19:31.886Z,2.35
2022-09-26T01:22:46.831Z,2.20
2022-09-26T01:25:44.798Z,2.28
2022-09-26T01:28:51.331Z,2.30
2022-09-26T01:32:11.381Z,2.30
2022-09-26T01:35:03.347Z,2.65
2022-09-26T01:37:48.716Z,2.47
2022-09-26T01:40:42.544Z,1.95
2022-09-26T01:43:37.762Z,1.53
2022-09-26T01:46:27.992Z,1.42
2022-09-26T01:49:07.755Z,1.73
2022-09-26T01:51:48.932Z,2.08
2022-09-26T01:54:28.359Z,2.25
2022-09-26T01:57:00.917Z,2.30
2022-09-26T01:59:56.211Z,2.03
2022-09-26T02:02:29.925Z,1.90
2022-09-26T02:05:11.322Z,1.75
2022-09-26T02:07:51.856Z,2.10
2022-09-26T02:10:39.393Z,2.05
2022-09-26T02:13:22.518Z,2.25
2022-09-26T02:16:03.563Z,2.45
2022-09-26T02:18:58.669Z,1.98
2022-09-26T02:21:28.168Z,2.38
2022-09-26T02:23:57.681Z,2.00
2022-09-26T02:26:29.633Z,2.10
2022-09-26T02:29:05.933Z,1.92
2022-09-26T02:31:42.113Z,1.80
2022-09-26T02:34:13.823Z,2.03
2022-09-26T02:36:46.956Z,1.73
2022-09-26T02:39:17.625Z,2.05
2022-09-26T02:42:44.081Z,1.80
2022-09-26T02:46:00.298Z,1.60
2022-09-26T02:52:43.748Z,2.20
2022-09-26T02:55:34.177Z,1.70
2022-09-26T02:58:57.292Z,2.15
2022-09-26T03:02:05.528Z,1.98
2022-09-26T03:04:52.427Z,1.65
2022-09-26T03:07:28.053Z,1.88
2022-09-26T03:10:03.369Z,2.13
2022-09-26T03:12:34.714Z,1.77
2022-09-26T03:15:07.029Z,1.95
2022-09-26T03:17:40.993Z,2.00
2022-09-26T03:20:18.146Z,1.98
2022-09-26T03:22:48.645Z,1.75
2022-09-26T03:25:25.965Z,1.67
2022-09-26T03:28:05.275Z,1.83
2022-09-26T03:30:35.869Z,1.52
2022-09-26T03:33:24.679Z,1.50
2022-09-26T03:35:54.761Z,1.70
2022-09-26T03:38:26.369Z,1.65
2022-09-26T03:41:20.935Z,1.95
2022-09-26T03:44:13.712Z,1.52
2022-09-26T03:47:03.405Z,1.80
2022-09-26T03:49:34.265Z,1.58
2022-09-26T03:52:07.256Z,1.75
2022-09-26T03:54:37.777Z,1.50
2022-09-26T03:57:09.566Z,1.70
2022-09-26T03:59:45.532Z,1.55
2022-09-26T04:02:24.050Z,1.52
2022-09-26T04:05:07.480Z,1.70
2022-09-26T04:07:38.366Z,1.67
2022-09-26T04:10:10.356Z,1.70
2022-09-26T04:15:12.646Z,1.50
2022-09-26T04:17:40.446Z,1.40
2022-09-26T04:20:14.264Z,1.48
2022-09-26T04:22:45.758Z,1.58
2022-09-26T04:25:16.084Z,2.00
2022-09-26T04:27:46.813Z,1.70
2022-09-26T04:30:19.612Z,1.35
2022-09-26T04:32:58.963Z,1.83
2022-09-26T04:35:36.611Z,1.70
2022-09-26T04:38:07.055Z,1.63
2022-09-26T04:40:42.793Z,1.73
2022-09-26T04:43:16.795Z,2.00
2022-09-26T04:45:52.278Z,1.63
2022-09-26T04:48:25.920Z,1.65
2022-09-26T04:51:04.003Z,2.13
2022-09-26T04:53:36.798Z,1.67
2022-09-26T04:56:25.849Z,2.58
2022-09-26T04:58:55.327Z,1.48
2022-09-26T05:42:55.389Z,1.70
2022-09-26T05:45:26.780Z,1.35
2022-09-26T05:47:57.653Z,1.42
2022-09-26T05:50:29.154Z,1.50
2022-09-26T05:53:07.102Z,1.75
2022-09-26T05:55:38.910Z,1.23
2022-09-26T05:58:25.955Z,1.90
2022-09-26T06:01:19.042Z,1.25
2022-09-26T06:03:51.243Z,1.58
2022-09-26T06:06:28.049Z,1.63
2022-09-26T06:09:19.431Z,1.33
2022-09-26T06:12:14.718Z,1.15
2022-09-26T06:14:48.729Z,1.25
2022-09-26T06:17:24.686Z,1.30
2022-09-26T06:20:10.169Z,1.20
2022-09-26T06:22:46.995Z,1.15
2022-09-26T06:25:16.967Z,1.40
2022-09-26T06:27:50.977Z,0.90
2022-09-26T06:30:24.712Z,1.30
2022-09-26T06:32:58.620Z,1.45
2022-09-26T06:36:12.024Z,1.45
2022-09-26T06:38:42.525Z,1.20
2022-09-26T06:41:21.055Z,1.50
2022-09-26T06:43:52.213Z,1.50
2022-09-26T06:46:55.073Z,1.50
2022-09-26T06:49:35.292Z,1.67
2022-09-26T06:52:11.656Z,1.88
2022-09-26T06:57:26.010Z,1.38
2022-09-26T06:59:59.136Z,1.77
2022-09-26T07:03:05.301Z,1.80
2022-09-26T07:06:03.697Z,1.70
2022-09-26T07:09:01.047Z,1.80
2022-09-26T07:12:13.454Z,3.70
2022-09-26T07:14:39.996Z,1.58
2022-09-26T07:17:33.576Z,1.77
2022-09-26T07:20:34.013Z,1.48
2022-09-26T07:23:27.401Z,1.65
2022-09-26T07:25:57.067Z,1.85
2022-09-26T07:28:28.915Z,1.83
2022-09-26T07:31:03.811Z,1.52
2022-09-26T07:34:10.838Z,1.55
2022-09-26T07:36:46.324Z,1.90
2022-09-26T07:39:23.419Z,1.65
2022-09-26T07:42:00.172Z,1.98
2022-09-26T07:47:45.228Z,1.73
2022-09-26T07:50:38.416Z,1.65
2022-09-26T07:53:32.615Z,2.20
2022-09-26T07:56:24.880Z,3.20
2022-09-26T07:59:28.287Z,2.47
2022-09-26T08:02:24.784Z,2.00
2022-09-26T08:05:07.969Z,2.50
2022-09-26T08:07:53.184Z,1.67
2022-09-26T08:11:03.439Z,1.88
2022-09-26T08:13:50.356Z,2.22
2022-09-26T08:16:31.185Z,2.05
2022-09-26T08:19:08.228Z,2.40
2022-09-26T08:21:38.991Z,2.10
2022-09-26T08:24:11.602Z,2.10
2022-09-26T08:27:00.748Z,2.20
2022-09-26T08:29:37.011Z,2.00
2022-09-26T08:32:11.139Z,1.90
2022-09-26T08:34:44.129Z,1.83
2022-09-26T08:37:45.053Z,1.70
2022-09-26T08:40:55.021Z,1.73
2022-09-26T08:44:30.979Z,2.30
2022-09-26T08:47:51.397Z,1.95
2022-09-26T08:50:56.543Z,2.38
2022-09-26T08:53:37.231Z,2.33
2022-09-26T08:56:22.272Z,2.65
2022-09-26T08:59:00.605Z,2.88
2022-09-26T09:01:44.235Z,2.28
2022-09-26T09:04:53.662Z,2.20
2022-09-26T09:07:26.859Z,1.65
2022-09-26T09:10:04.014Z,2.50
2022-09-26T09:13:31.058Z,2.05
2022-09-26T09:16:41.271Z,1.85
2022-09-26T09:20:21.045Z,1.52
2022-09-26T09:23:47.312Z,1.17
2022-09-26T09:30:15.694Z,1.75
2022-09-26T09:33:37.195Z,1.58
2022-09-26T09:36:54.397Z,1.65
2022-09-26T09:40:05.584Z,2.13
2022-09-26T09:42:52.651Z,1.80
2022-09-26T09:45:47.269Z,1.88
2022-09-26T09:48:22.123Z,1.73
2022-09-26T09:51:14.233Z,2.33
2022-09-26T09:54:00.951Z,2.05
2022-09-26T09:56:56.339Z,2.25
2022-09-26T09:59:52.859Z,3.08
2022-09-26T10:03:05.216Z,3.60
2022-09-26T10:05:53.723Z,3.45
2022-09-26T10:08:33.678Z,2.15
2022-09-26T10:11:31.558Z,2.33
2022-09-26T10:15:07.011Z,2.03
2022-09-26T10:18:23.553Z,1.70
2022-09-26T10:21:35.012Z,2.42
2022-09-26T10:24:43.534Z,1.70
2022-09-26T10:27:38.460Z,2.33
2022-09-26T10:30:27.252Z,2.20
2022-09-26T10:33:06.364Z,2.20
2022-09-26T10:36:11.952Z,2.03
2022-09-26T10:39:19.747Z,1.92
2022-09-26T10:42:03.254Z,3.10
2022-09-26T10:44:40.575Z,2.08
2022-09-26T10:47:35.155Z,2.00
2022-09-26T10:50:51.628Z,1.60
2022-09-26T10:53:47.315Z,2.25
2022-09-26T10:56:23.382Z,1.85
2022-09-26T10:58:58.508Z,1.90
2022-09-26T11:01:35.055Z,1.63
2022-09-26T11:04:36.271Z,1.77
2022-09-26T11:07:39.622Z,1.80
2022-09-26T11:10:37.082Z,1.45
2022-09-26T11:13:26.381Z,2.00
2022-09-26T11:16:22.413Z,1.35
2022-09-26T11:19:16.469Z,1.98
2022-09-26T11:22:09.400Z,1.75
2022-09-26T11:25:09.519Z,2.80
2022-09-26T11:28:07.603Z,1.70
2022-09-26T11:31:10.466Z,1.38
2022-09-26T11:33:50.086Z,2.00
2022-09-26T11:36:47.809Z,1.75
2022-09-26T11:39:35.647Z,4.00
2022-09-26T11:42:24.106Z,3.10
2022-09-26T11:45:00.601Z,3.15
2022-09-26T11:48:11.343Z,2.53
2022-09-26T11:51:36.623Z,2.53
2022-09-26T11:54:35.418Z,3.17
2022-09-26T11:57:27.111Z,1.73
2022-09-26T12:00:33.345Z,1.50
2022-09-26T12:03:41.905Z,1.55
2022-09-26T12:06:40.180Z,1.40
2022-09-26T12:09:26.400Z,1.60
2022-09-26T12:12:11.164Z,2.20
2022-09-26T12:15:18.215Z,2.65
2022-09-26T12:18:13.488Z,4.53
2022-09-26T12:21:25.572Z,2.50
2022-09-26T12:24:00.049Z,2.40
2022-09-26T12:26:52.139Z,1.80
2022-09-26T12:29:47.762Z,2.20
2022-09-26T12:32:27.862Z,2.00
2022-09-26T12:35:10.646Z,2.25
2022-09-26T12:37:54.729Z,2.00
2022-09-26T12:40:33.984Z,2.30
2022-09-26T12:43:36.515Z,2.80
2022-09-26T12:46:20.670Z,3.85
2022-09-26T12:49:29.044Z,1.60
2022-09-26T12:52:18.207Z,2.47
2022-09-26T12:55:19.461Z,3.25
2022-09-26T12:58:25.730Z,4.40
2022-09-26T13:01:26.159Z,2.50
2022-09-26T13:04:37.672Z,2.75
2022-09-26T13:07:29.600Z,4.75
2022-09-26T13:10:25.177Z,4.60
2022-09-26T13:13:23.352Z,13.25
2022-09-26T13:16:16.494Z,10.18
2022-09-26T13:18:54.930Z,7.03
2022-09-26T13:21:29.142Z,6.45
2022-09-26T13:24:27.046Z,5.38
2022-09-26T13:27:03.480Z,6.28
2022-09-26T13:29:51.971Z,6.00
2022-09-26T13:32:54.115Z,5.47
2022-09-26T13:35:29.247Z,6.05
2022-09-26T13:38:42.299Z,6.50
2022-09-26T13:41:31.559Z,9.43
2022-09-26T13:44:29.021Z,7.05
2022-09-26T13:47:15.277Z,5.95
2022-09-26T13:50:09.699Z,7.45
2022-09-26T13:53:31.259Z,7.45
2022-09-26T13:56:39.167Z,8.20
2022-09-26T13:59:20.567Z,9.05
2022-09-26T14:05:26.244Z,8.75
2022-09-26T14:08:41.097Z,8.75
2022-09-26T14:11:52.517Z,12.70
2022-09-26T14:14:38.259Z,11.70
2022-09-26T14:17:46.296Z,6.72
2022-09-26T14:20:29.662Z,6.22
2022-09-26T14:23:01.485Z,8.43
2022-09-26T14:26:08.699Z,7.22
2022-09-26T14:28:54.108Z,9.13
2022-09-26T14:31:32.512Z,16.25
2022-09-26T14:34:25.422Z,10.23
2022-09-26T14:37:02.831Z,10.93
2022-09-26T14:39:38.018Z,13.48
2022-09-26T14:42:19.125Z,12.65
2022-09-26T14:45:18.298Z,11.35
2022-09-26T14:48:07.443Z,8.52
2022-09-26T14:50:53.553Z,7.20
2022-09-26T14:53:50.927Z,8.80
2022-09-26T14:56:38.388Z,7.90
2022-09-26T14:59:21.545Z,7.15
2022-09-26T15:01:51.636Z,8.65
2022-09-26T15:04:31.441Z,7.82
2022-09-26T15:07:12.630Z,8.20
2022-09-26T15:10:04.873Z,6.72
2022-09-26T15:13:11.863Z,5.85
2022-09-26T15:16:22.886Z,7.05
2022-09-26T15:19:06.846Z,6.65
2022-09-26T15:21:43.469Z,7.15
2022-09-26T15:24:32.964Z,5.20
2022-09-26T15:27:31.354Z,6.33
2022-09-26T15:30:32.863Z,5.80
2022-09-26T15:33:11.172Z,6.85
2022-09-26T15:35:58.903Z,8.15
2022-09-26T15:38:29.708Z,8.63
2022-09-26T15:41:14.429Z,7.90
2022-09-26T15:43:43.162Z,5.87
2022-09-26T15:46:30.771Z,7.90
2022-09-26T15:49:09.111Z,7.95
2022-09-26T15:51:42.228Z,6.43
2022-09-26T15:54:21.788Z,6.80
2022-09-26T15:56:56.772Z,6.90
2022-09-26T15:59:40.771Z,8.30
2022-09-26T16:02:31.541Z,8.88
2022-09-26T16:05:04.163Z,7.55
2022-09-26T16:07:39.025Z,7.45
2022-09-26T16:10:30.481Z,7.47
2022-09-26T16:13:00.611Z,8.75
2022-09-26T16:15:31.770Z,11.50
2022-09-26T16:18:31.578Z,7.95
2022-09-26T16:21:24.211Z,6.50
2022-09-26T16:23:58.280Z,3.30
2022-09-26T16:26:46.196Z,4.13
2022-09-26T16:29:32.619Z,3.33
2022-09-26T16:32:04.160Z,2.53
2022-09-26T16:34:40.085Z,2.38
2022-09-26T16:37:19.897Z,2.03
2022-09-26T16:40:25.570Z,2.70
2022-09-26T16:43:24.490Z,3.10
2022-09-26T16:46:05.525Z,3.80
2022-09-26T16:48:54.026Z,4.35
2022-09-26T16:51:39.670Z,3.70
2022-09-26T16:54:21.875Z,3.63
2022-09-26T16:56:57.609Z,5.78
2022-09-26T16:59:36.385Z,4.57
2022-09-26T17:02:14.422Z,4.28
2022-09-26T17:05:05.112Z,10.10
2022-09-26T17:07:35.669Z,5.70
2022-09-26T17:10:09.084Z,5.70
2022-09-26T17:12:45.015Z,6.10
2022-09-26T17:15:23.939Z,7.28
2022-09-26T17:17:55.723Z,10.80
2022-09-26T17:20:30.867Z,11.20
2022-09-26T17:23:16.863Z,14.73
2022-09-26T17:25:56.776Z,14.70
2022-09-26T17:28:39.726Z,15.82
2022-09-26T17:31:20.431Z,16.35
2022-09-26T17:33:57.607Z,20.73
2022-09-26T17:36:34.626Z,22.90
2022-09-26T17:39:11.896Z,21.23
2022-09-26T17:41:40.721Z,19.48
2022-09-26T17:44:14.095Z,19.88
2022-09-26T17:46:43.249Z,19.08
2022-09-26T17:49:17.196Z,21.25
2022-09-26T17:51:50.837Z,21.88
2022-09-26T17:56:53.645Z,24.70
2022-09-26T17:59:29.973Z,26.20
2022-09-26T18:02:04.411Z,22.88
2022-09-26T18:04:37.864Z,20.60
2022-09-26T18:07:14.343Z,20.65
2022-09-26T18:09:45.540Z,22.05
2022-09-26T18:12:22.727Z,21.20
2022-09-26T18:14:52.437Z,20.67
2022-09-26T18:17:25.063Z,19.90
2022-09-26T18:19:57.072Z,18.30
2022-09-26T18:22:51.386Z,24.63
2022-09-26T18:25:27.706Z,19.40
2022-09-26T18:27:57.115Z,20.92
2022-09-26T18:30:29.110Z,21.45
2022-09-26T18:32:59.897Z,17.85
2022-09-26T18:38:15.912Z,17.20
2022-09-26T18:40:52.305Z,14.50
2022-09-26T18:43:30.815Z,15.77
2022-09-26T18:46:06.604Z,18.40
2022-09-26T18:48:37.530Z,12.73
2022-09-26T18:51:10.706Z,7.80
2022-09-26T18:53:43.659Z,11.02
2022-09-26T18:56:37.744Z,8.98
2022-09-26T18:59:11.431Z,6.95
2022-09-26T19:01:43.838Z,7.28
2022-09-26T19:04:34.425Z,5.95
2022-09-26T19:07:06.577Z,7.88
2022-09-26T19:09:40.029Z,14.75
2022-09-26T19:12:16.982Z,10.80
2022-09-26T19:14:52.192Z,12.25
2022-09-26T19:20:19.966Z,8.07
2022-09-26T19:22:54.377Z,7.88
2022-09-26T19:25:23.917Z,7.07
2022-09-26T19:28:00.417Z,8.85
2022-09-26T19:30:30.342Z,10.35
2022-09-26T19:33:10.499Z,9.38
2022-09-26T19:35:43.107Z,7.97
2022-09-26T19:38:27.703Z,7.13
2022-09-26T19:41:03.301Z,11.38
2022-09-26T19:43:36.861Z,8.25
2022-09-26T19:48:44.460Z,4.25
2022-09-26T19:51:19.693Z,3.28
2022-09-26T19:53:53.994Z,6.05
2022-09-26T19:56:21.600Z,3.50
2022-09-26T19:58:52.819Z,3.90
2022-09-26T20:01:26.452Z,4.90
2022-09-26T20:03:59.388Z,5.60
2022-09-26T20:06:36.224Z,5.32
2022-09-26T20:09:08.701Z,6.03
2022-09-26T20:11:36.685Z,7.55
2022-09-26T20:14:25.282Z,6.95
2022-09-26T20:17:01.061Z,7.15
2022-09-26T20:19:41.519Z,6.90
2022-09-26T20:22:18.410Z,6.72
2022-09-26T20:24:55.269Z,11.75
2022-09-26T20:27:39.140Z,9.97
2022-09-26T20:30:33.259Z,6.50
2022-09-26T20:33:06.009Z,6.97
2022-09-26T20:35:42.044Z,7.70
2022-09-26T20:38:30.358Z,7.00
2022-09-26T20:41:16.473Z,11.45
2022-09-26T20:43:52.280Z,9.40
2022-09-26T20:46:23.863Z,7.53
2022-09-26T20:48:53.450Z,7.68
2022-09-26T20:51:30.195Z,7.55
2022-09-26T20:54:03.331Z,11.00
2022-09-26T20:56:32.766Z,9.27
2022-09-26T20:59:02.643Z,8.57
2022-09-26T21:01:38.270Z,9.55
2022-09-26T21:04:17.463Z,9.90
2022-09-26T21:06:49.036Z,12.45
2022-09-26T21:09:26.033Z,14.10
2022-09-26T21:12:01.077Z,9.90
2022-09-26T21:14:35.354Z,9.88
2022-09-26T21:17:04.923Z,9.20
2022-09-26T21:19:36.491Z,11.38
2022-09-26T21:22:30.547Z,14.82
2022-09-26T21:25:04.052Z,14.85
2022-09-26T21:27:34.801Z,18.15
2022-09-26T21:30:08.797Z,10.35
2022-09-26T21:32:51.584Z,10.55
2022-09-26T21:38:09.628Z,10.77
2022-09-26T21:40:43.331Z,12.35
2022-09-26T21:43:19.107Z,13.95
2022-09-26T21:45:56.148Z,12.68
2022-09-26T21:48:26.294Z,11.68
2022-09-26T21:50:58.562Z,10.65
2022-09-26T21:53:48.159Z,13.50
2022-09-26T21:56:31.006Z,10.90
2022-09-26T22:01:47.033Z,10.48
2022-09-26T22:04:29.066Z,17.77
2022-09-26T22:07:04.501Z,13.85
2022-09-26T22:09:37.542Z,10.05
2022-09-26T22:12:10.491Z,11.88
2022-09-26T22:14:41.851Z,9.10
2022-09-26T22:17:20.951Z,7.53
2022-09-26T22:19:53.955Z,7.38
2022-09-26T22:22:38.107Z,7.28
2022-09-26T22:25:14.401Z,7.13
2022-09-26T22:27:49.964Z,6.90
2022-09-26T22:30:20.645Z,6.60
2022-09-26T22:32:51.175Z,9.23
2022-09-26T22:35:23.998Z,8.57
2022-09-26T22:37:57.037Z,7.70
2022-09-26T22:40:34.504Z,7.43
2022-09-26T22:43:10.852Z,6.55
2022-09-26T22:45:40.179Z,6.25
2022-09-26T22:48:14.814Z,5.13
2022-09-26T22:50:52.359Z,6.10
2022-09-26T22:53:24.156Z,9.45
2022-09-26T22:55:55.004Z,4.50
2022-09-26T22:58:33.046Z,4.97
2022-09-26T23:01:18.990Z,4.65
2022-09-26T23:03:58.836Z,4.05
2022-09-26T23:06:46.742Z,4.00
2022-09-26T23:09:28.835Z,3.40
2022-09-26T23:12:04.461Z,3.97
2022-09-26T23:14:35.540Z,3.53
2022-09-26T23:19:55.002Z,4.30
2022-09-26T23:22:25.395Z,4.72
2022-09-26T23:24:58.956Z,4.30
2022-09-26T23:27:36.619Z,6.90
2022-09-26T23:30:09.885Z,7.13
2022-09-26T23:32:41.928Z,4.68
2022-09-26T23:35:12.760Z,4.63
2022-09-26T23:37:50.445Z,4.70
2022-09-26T23:40:29.228Z,4.63
2022-09-26T23:42:59.303Z,7.03
2022-09-26T23:45:31.432Z,4.93
2022-09-26T23:48:17.198Z,3.60
2022-09-26T23:50:51.389Z,6.57
2022-09-26T23:53:21.440Z,4.78
2022-09-26T23:55:53.077Z,5.40
2022-09-26T23:58:23.175Z,4.57
